createdAt,value
2023-11-11T00:00:17.263Z,100.00
2023-11-11T00:03:19.619Z,100.00
2023-11-11T00:06:21.880Z,100.00
2023-11-11T00:09:24.623Z,100.00
2023-11-11T00:12:28.402Z,100.00
2023-11-11T00:15:30.675Z,100.00
2023-11-11T00:18:32.770Z,100.00
2023-11-11T00:21:40.273Z,100.00
2023-11-11T00:24:43.822Z,100.00
2023-11-11T00:27:46.553Z,100.00
2023-11-11T00:30:48.768Z,100.00
2023-11-11T00:33:50.995Z,100.00
2023-11-11T00:36:54.232Z,100.00
2023-11-11T00:39:59.822Z,100.00
2023-11-11T00:43:02.982Z,100.00
2023-11-11T00:46:05.420Z,100.00
2023-11-11T00:49:08.920Z,100.00
2023-11-11T00:52:11.531Z,100.00
2023-11-11T00:55:13.807Z,100.00
2023-11-11T00:58:15.921Z,100.00
2023-11-11T01:01:18.197Z,100.00
2023-11-11T01:04:20.604Z,100.00
2023-11-11T01:07:22.806Z,100.00
2023-11-11T01:10:25.909Z,100.00
2023-11-11T01:13:28.071Z,100.00
2023-11-11T01:16:30.209Z,100.00
2023-11-11T01:19:32.640Z,100.00
2023-11-11T01:22:34.897Z,100.00
2023-11-11T01:25:37.254Z,100.00
2023-11-11T01:28:40.771Z,100.00
2023-11-11T01:31:43.630Z,100.00
2023-11-11T01:34:46.353Z,100.00
2023-11-11T01:37:48.664Z,100.00
2023-11-11T01:40:50.709Z,100.00
2023-11-11T01:43:53.644Z,100.00
2023-11-11T01:46:56.663Z,100.00
2023-11-11T01:50:00.436Z,100.00
2023-11-11T01:53:02.947Z,100.00
2023-11-11T01:56:06.469Z,100.00
2023-11-11T01:59:09.842Z,100.00
2023-11-11T02:02:12.767Z,100.00
2023-11-11T02:05:15.876Z,100.00
2023-11-11T02:08:18.183Z,100.00
2023-11-11T02:11:21.097Z,100.00
2023-11-11T02:14:23.411Z,100.00
2023-11-11T02:17:27.421Z,100.00
2023-11-11T02:20:34.650Z,100.00
2023-11-11T02:23:38.399Z,100.00
2023-11-11T02:26:40.640Z,100.00
2023-11-11T02:29:46.720Z,100.00
2023-11-11T02:32:50.131Z,100.00
2023-11-11T02:35:52.604Z,100.00
2023-11-11T02:38:55.276Z,99.84
2023-11-11T02:41:57.402Z,98.92
2023-11-11T02:44:59.465Z,100.00
2023-11-11T02:48:05.548Z,100.00
2023-11-11T02:51:07.665Z,100.00
2023-11-11T02:54:10.316Z,100.00
2023-11-11T02:57:12.518Z,100.00
2023-11-11T03:00:15.474Z,100.00
2023-11-11T03:03:17.607Z,100.00
2023-11-11T03:06:19.745Z,100.00
2023-11-11T03:09:21.907Z,97.34
2023-11-11T03:12:24.260Z,99.55
2023-11-11T03:15:26.356Z,98.19
2023-11-11T03:18:28.491Z,98.88
2023-11-11T03:21:30.606Z,97.83
2023-11-11T03:24:33.329Z,98.48
2023-11-11T03:27:35.677Z,97.68
2023-11-11T03:30:37.755Z,97.46
2023-11-11T03:33:40.229Z,96.18
2023-11-11T03:36:42.832Z,98.47
2023-11-11T03:39:46.305Z,99.71
2023-11-11T03:42:48.715Z,97.75
2023-11-11T03:45:50.904Z,95.64
2023-11-11T03:48:54.263Z,95.68
2023-11-11T03:51:56.433Z,97.25
2023-11-11T03:54:58.448Z,97.41
2023-11-11T03:58:00.720Z,98.73
2023-11-11T04:01:02.842Z,100.00
2023-11-11T04:04:05.183Z,100.00
2023-11-11T04:07:07.309Z,97.06
2023-11-11T04:10:10.339Z,98.35
2023-11-11T04:13:14.484Z,99.67
2023-11-11T04:16:16.553Z,100.00
2023-11-11T04:19:18.998Z,100.00
2023-11-11T04:22:21.419Z,100.00
2023-11-11T04:25:23.560Z,100.00
2023-11-11T04:28:27.197Z,98.94
2023-11-11T04:31:29.392Z,95.30
2023-11-11T04:34:31.591Z,95.78
2023-11-11T04:37:33.697Z,96.93
2023-11-11T04:40:37.656Z,98.33
2023-11-11T04:43:39.801Z,93.05
2023-11-11T04:46:41.997Z,94.79
2023-11-11T04:49:45.347Z,95.77
2023-11-11T04:52:47.578Z,96.93
2023-11-11T04:55:49.728Z,98.77
2023-11-11T04:58:51.790Z,94.46
2023-11-11T05:01:55.376Z,91.75
2023-11-11T05:04:57.629Z,95.58
2023-11-11T05:07:59.687Z,95.90
2023-11-11T05:11:02.930Z,97.57
2023-11-11T05:14:09.369Z,99.63
2023-11-11T05:17:11.523Z,100.00
2023-11-11T05:20:18.611Z,97.66
2023-11-11T05:23:21.291Z,92.38
2023-11-11T05:26:23.374Z,94.02
2023-11-11T05:29:25.436Z,93.45
2023-11-11T05:32:30.262Z,95.56
2023-11-11T05:35:32.502Z,97.44
2023-11-11T05:38:34.755Z,95.22
2023-11-11T05:41:39.055Z,98.70
2023-11-11T05:44:44.141Z,99.20
2023-11-11T05:47:46.596Z,96.26
2023-11-11T05:50:48.849Z,97.22
2023-11-11T05:53:51.012Z,98.19
2023-11-11T05:56:53.044Z,95.45
2023-11-11T05:59:55.125Z,97.44
2023-11-11T06:02:57.831Z,98.25
2023-11-11T06:06:01.910Z,99.30
2023-11-11T06:09:05.072Z,97.85
2023-11-11T06:12:07.465Z,97.87
2023-11-11T06:15:10.909Z,99.20
2023-11-11T06:18:14.179Z,100.00
2023-11-11T06:21:16.267Z,100.00
2023-11-11T06:24:18.830Z,100.00
2023-11-11T06:27:20.948Z,100.00
2023-11-11T06:30:23.070Z,100.00
2023-11-11T06:33:25.285Z,100.00
2023-11-11T06:36:27.475Z,100.00
2023-11-11T06:39:31.924Z,100.00
2023-11-11T06:42:34.853Z,100.00
2023-11-11T06:45:36.966Z,100.00
2023-11-11T06:48:39.262Z,100.00
2023-11-11T06:51:41.347Z,100.00
2023-11-11T06:54:45.086Z,100.00
2023-11-11T06:57:47.254Z,100.00
2023-11-11T07:00:49.459Z,100.00
2023-11-11T07:03:52.056Z,100.00
2023-11-11T07:06:54.228Z,100.00
2023-11-11T07:09:56.407Z,100.00
2023-11-11T07:12:58.792Z,100.00
2023-11-11T07:16:01.756Z,100.00
2023-11-11T07:19:05.282Z,100.00
2023-11-11T07:25:13.260Z,100.00
2023-11-11T07:28:16.612Z,100.00
2023-11-11T07:31:20.700Z,100.00
2023-11-11T07:34:23.176Z,100.00
2023-11-11T07:37:28.616Z,100.00
2023-11-11T07:40:30.721Z,100.00
2023-11-11T07:43:33.162Z,100.00
2023-11-11T07:46:35.520Z,100.00
2023-11-11T07:49:39.460Z,100.00
2023-11-11T07:52:41.526Z,100.00
2023-11-11T07:55:43.527Z,100.00
2023-11-11T07:58:48.661Z,100.00
2023-11-11T08:01:51.038Z,94.52
2023-11-11T08:04:53.248Z,95.24
2023-11-11T08:08:08.204Z,99.42
2023-11-11T08:11:16.866Z,100.00
2023-11-11T08:14:19.105Z,87.70
2023-11-11T08:17:23.914Z,90.29
2023-11-11T08:20:26.089Z,86.09
2023-11-11T08:23:28.309Z,82.41
2023-11-11T08:26:30.530Z,82.56
2023-11-11T08:29:32.751Z,80.09
2023-11-11T08:32:34.942Z,82.37
2023-11-11T08:35:37.031Z,79.67
2023-11-11T08:38:39.461Z,78.12
2023-11-11T08:41:41.761Z,80.52
2023-11-11T08:44:44.330Z,79.64
2023-11-11T08:47:46.761Z,82.01
2023-11-11T08:50:49.603Z,81.40
2023-11-11T08:53:52.191Z,81.46
2023-11-11T08:56:55.776Z,80.46
2023-11-11T08:59:57.805Z,82.16
2023-11-11T09:02:59.919Z,83.51
2023-11-11T09:06:03.617Z,80.90
2023-11-11T09:09:05.985Z,79.16
2023-11-11T09:12:08.390Z,78.59
2023-11-11T09:15:12.312Z,79.69
2023-11-11T09:18:15.613Z,80.96
2023-11-11T09:21:17.721Z,80.87
2023-11-11T09:24:19.949Z,79.98
2023-11-11T09:27:22.036Z,78.76
2023-11-11T09:30:24.877Z,78.00
2023-11-11T09:33:27.098Z,75.57
2023-11-11T09:36:29.991Z,79.13
2023-11-11T09:39:32.187Z,79.68
2023-11-11T09:42:34.451Z,77.70
2023-11-11T09:45:36.685Z,73.74
2023-11-11T09:48:39.367Z,73.90
2023-11-11T09:51:42.263Z,71.91
2023-11-11T09:54:47.825Z,73.57
2023-11-11T09:57:50.966Z,71.55
2023-11-11T10:00:53.375Z,72.23
2023-11-11T10:03:57.599Z,73.51
2023-11-11T10:06:59.767Z,70.50
2023-11-11T10:10:02.225Z,71.69
2023-11-11T10:13:04.532Z,68.52
2023-11-11T10:16:27.169Z,74.49
2023-11-11T10:19:29.276Z,75.59
2023-11-11T10:22:31.406Z,69.89
2023-11-11T10:25:33.929Z,74.07
2023-11-11T10:28:36.000Z,70.91
2023-11-11T10:31:38.915Z,73.97
2023-11-11T10:34:42.108Z,71.24
2023-11-11T10:37:45.610Z,69.91
2023-11-11T10:40:48.445Z,72.61
2023-11-11T10:43:51.555Z,74.28
2023-11-11T10:46:55.300Z,72.15
2023-11-11T10:50:00.267Z,72.16
2023-11-11T10:53:05.461Z,72.06
2023-11-11T10:56:08.274Z,70.72
2023-11-11T10:59:12.060Z,69.57
2023-11-11T11:02:15.199Z,71.49
2023-11-11T11:05:30.007Z,71.76
2023-11-11T11:08:47.438Z,71.71
2023-11-11T11:12:16.629Z,70.11
2023-11-11T11:15:20.983Z,75.04
2023-11-11T11:18:26.598Z,70.41
2023-11-11T11:21:30.094Z,71.56
2023-11-11T11:24:34.277Z,71.38
2023-11-11T11:27:36.279Z,70.53
2023-11-11T11:30:57.368Z,70.90
2023-11-11T11:34:00.080Z,71.09
2023-11-11T11:37:02.864Z,71.26
2023-11-11T11:40:10.570Z,67.75
2023-11-11T11:43:13.101Z,70.86
2023-11-11T11:46:15.343Z,70.78
2023-11-11T11:49:17.377Z,72.46
2023-11-11T11:52:20.815Z,71.77
2023-11-11T11:55:26.671Z,72.63
2023-11-11T11:58:29.749Z,71.19
2023-11-11T12:01:34.608Z,75.73
2023-11-11T12:04:37.199Z,72.20
2023-11-11T12:07:40.089Z,72.71
2023-11-11T12:11:02.818Z,73.65
2023-11-11T12:14:23.508Z,76.11
2023-11-11T12:17:27.165Z,72.78
2023-11-11T12:20:45.177Z,73.12
2023-11-11T12:23:49.421Z,73.70
2023-11-11T12:26:52.292Z,77.98
2023-11-11T12:29:54.739Z,76.54
2023-11-11T12:33:07.941Z,78.94
2023-11-11T12:36:10.979Z,79.04
2023-11-11T12:39:15.755Z,77.10
2023-11-11T12:42:27.601Z,77.95
2023-11-11T12:45:32.113Z,79.89
2023-11-11T12:48:35.872Z,76.39
2023-11-11T12:51:39.860Z,77.57
2023-11-11T12:54:42.541Z,78.65
2023-11-11T12:57:44.937Z,81.46
2023-11-11T13:00:51.405Z,79.47
2023-11-11T13:03:53.794Z,79.17
2023-11-11T13:06:56.061Z,78.48
2023-11-11T13:09:58.228Z,78.26
2023-11-11T13:13:00.406Z,76.44
2023-11-11T13:16:02.765Z,76.91
2023-11-11T13:19:04.932Z,79.40
2023-11-11T13:22:10.594Z,79.35
2023-11-11T13:25:13.184Z,77.94
2023-11-11T13:28:15.718Z,78.80
2023-11-11T13:31:22.726Z,76.96
2023-11-11T13:34:25.384Z,76.20
2023-11-11T13:37:29.993Z,75.62
2023-11-11T13:40:41.136Z,80.44
2023-11-11T13:43:49.395Z,79.24
2023-11-11T13:46:52.368Z,78.97
2023-11-11T13:49:55.964Z,78.60
2023-11-11T13:53:00.875Z,78.90
2023-11-11T13:56:05.893Z,82.18
2023-11-11T13:59:10.362Z,82.08
2023-11-11T14:02:13.870Z,80.58
2023-11-11T14:05:23.160Z,82.13
2023-11-11T14:08:26.682Z,83.59
2023-11-11T14:11:29.278Z,84.65
2023-11-11T14:14:31.449Z,81.50
2023-11-11T14:17:34.381Z,81.65
2023-11-11T14:20:36.957Z,81.17
2023-11-11T14:23:41.348Z,78.21
2023-11-11T14:26:48.034Z,79.56
2023-11-11T14:29:50.117Z,81.39
2023-11-11T14:32:52.306Z,82.94
2023-11-11T14:35:54.578Z,80.38
2023-11-11T14:38:56.648Z,77.41
2023-11-11T14:41:59.054Z,78.52
2023-11-11T14:45:01.811Z,78.81
2023-11-11T14:48:04.259Z,79.80
2023-11-11T14:51:06.777Z,79.08
2023-11-11T14:54:10.774Z,80.44
2023-11-11T14:57:14.116Z,78.63
2023-11-11T15:00:24.358Z,80.15
2023-11-11T15:03:28.019Z,78.54
2023-11-11T15:06:33.342Z,77.08
2023-11-11T15:09:35.738Z,76.21
2023-11-11T15:12:40.761Z,76.35
2023-11-11T15:15:42.971Z,78.81
2023-11-11T15:18:46.406Z,80.24
2023-11-11T15:21:51.271Z,79.60
2023-11-11T15:24:56.874Z,79.61
2023-11-11T15:27:59.628Z,81.04
2023-11-11T15:31:01.871Z,84.80
2023-11-11T15:34:10.383Z,83.46
2023-11-11T15:37:16.101Z,85.51
2023-11-11T15:40:19.002Z,85.20
2023-11-11T15:43:21.140Z,87.75
2023-11-11T15:46:23.362Z,86.91
2023-11-11T15:49:26.540Z,86.22
2023-11-11T15:52:28.934Z,85.69
2023-11-11T15:55:32.216Z,87.52
2023-11-11T15:58:34.365Z,84.04
2023-11-11T16:01:42.753Z,85.29
2023-11-11T16:04:44.827Z,82.50
2023-11-11T16:07:47.428Z,84.39
2023-11-11T16:10:54.107Z,80.09
2023-11-11T16:14:07.655Z,81.94
2023-11-11T16:17:21.854Z,81.61
2023-11-11T16:20:24.990Z,82.18
2023-11-11T16:23:27.882Z,81.15
2023-11-11T16:26:33.383Z,82.27
2023-11-11T16:29:39.279Z,85.02
2023-11-11T16:32:45.070Z,85.64
2023-11-11T16:35:47.418Z,84.36
2023-11-11T16:38:49.442Z,87.48
2023-11-11T16:41:56.449Z,87.66
2023-11-11T16:44:59.060Z,86.42
2023-11-11T16:48:01.255Z,87.09
2023-11-11T16:51:04.550Z,85.87
2023-11-11T16:54:07.186Z,86.59
2023-11-11T16:57:10.912Z,86.45
2023-11-11T17:00:23.187Z,85.55
2023-11-11T17:03:26.738Z,83.89
2023-11-11T17:06:29.279Z,83.20
2023-11-11T17:09:33.125Z,82.93
2023-11-11T17:12:36.033Z,82.49
2023-11-11T17:15:39.384Z,83.06
2023-11-11T17:18:41.867Z,84.26
2023-11-11T17:21:45.022Z,85.95
2023-11-11T17:24:47.508Z,86.76
2023-11-11T17:27:50.273Z,84.35
2023-11-11T17:30:52.489Z,85.85
2023-11-11T17:33:57.708Z,85.46
2023-11-11T17:37:01.908Z,82.89
2023-11-11T17:40:07.645Z,78.76
2023-11-11T17:43:18.208Z,79.66
2023-11-11T17:46:24.410Z,82.26
2023-11-11T17:49:28.265Z,80.79
2023-11-11T17:52:32.233Z,79.20
2023-11-11T17:55:37.063Z,81.20
2023-11-11T17:58:39.528Z,84.67
2023-11-11T18:01:42.468Z,85.09
2023-11-11T18:04:46.137Z,83.26
2023-11-11T18:07:48.684Z,82.89
2023-11-11T18:10:51.495Z,82.82
2023-11-11T18:13:54.032Z,81.33
2023-11-11T18:16:56.934Z,81.09
2023-11-11T18:20:02.208Z,78.77
2023-11-11T18:23:09.676Z,80.90
2023-11-11T18:26:13.585Z,82.17
2023-11-11T18:29:16.336Z,80.22
2023-11-11T18:32:25.135Z,80.90
2023-11-11T18:35:35.099Z,81.54
2023-11-11T18:38:42.244Z,81.32
2023-11-11T18:41:44.821Z,82.08
2023-11-11T18:44:47.915Z,83.40
2023-11-11T18:47:51.233Z,84.35
2023-11-11T18:51:00.152Z,81.07
2023-11-11T18:54:14.498Z,82.46
2023-11-11T18:57:28.823Z,84.02
2023-11-11T19:00:47.391Z,87.60
2023-11-11T19:03:55.034Z,85.71
2023-11-11T19:07:00.987Z,85.63
2023-11-11T19:10:10.330Z,84.98
2023-11-11T19:13:14.687Z,83.43
2023-11-11T19:16:20.893Z,84.43
2023-11-11T19:19:24.759Z,84.47
2023-11-11T19:22:31.602Z,84.75
2023-11-11T19:25:37.301Z,85.45
2023-11-11T19:28:43.313Z,84.09
2023-11-11T19:31:48.408Z,83.64
2023-11-11T19:34:52.101Z,85.66
2023-11-11T19:37:57.382Z,85.84
2023-11-11T19:41:04.946Z,82.95
2023-11-11T19:44:10.564Z,85.36
2023-11-11T19:47:16.904Z,83.61
2023-11-11T19:50:22.820Z,83.38
2023-11-11T19:53:27.841Z,83.25
2023-11-11T19:56:31.826Z,84.40
2023-11-11T19:59:34.887Z,86.51
2023-11-11T20:02:38.358Z,87.40
2023-11-11T20:05:41.507Z,88.80
2023-11-11T20:08:44.379Z,90.12
2023-11-11T20:11:48.930Z,91.24
2023-11-11T20:14:51.610Z,87.53
2023-11-11T20:17:55.570Z,89.99
2023-11-11T20:20:58.289Z,87.81
2023-11-11T20:24:01.512Z,89.44
2023-11-11T20:27:04.360Z,87.89
2023-11-11T20:30:12.417Z,87.25
2023-11-11T20:33:15.153Z,84.97
2023-11-11T20:36:18.609Z,86.61
2023-11-11T20:39:25.401Z,88.09
2023-11-11T20:42:28.749Z,88.39
2023-11-11T20:45:32.814Z,87.24
2023-11-11T20:48:36.768Z,86.77
2023-11-11T20:51:48.620Z,87.72
2023-11-11T20:54:51.827Z,91.42
2023-11-11T20:57:55.188Z,89.36
2023-11-11T21:01:00.204Z,88.71
2023-11-11T21:04:03.081Z,89.11
2023-11-11T21:07:05.468Z,89.67
2023-11-11T21:10:09.809Z,85.89
2023-11-11T21:13:12.027Z,85.66
2023-11-11T21:16:14.520Z,86.63
2023-11-11T21:19:17.198Z,86.87
2023-11-11T21:22:19.264Z,87.55
2023-11-11T21:25:24.390Z,83.69
2023-11-11T21:28:26.582Z,82.59
2023-11-11T21:31:28.961Z,85.75
2023-11-11T21:34:31.356Z,89.53
2023-11-11T21:37:36.028Z,87.21
2023-11-11T21:40:38.895Z,88.49
2023-11-11T21:43:41.068Z,87.12
2023-11-11T21:46:44.149Z,87.33
2023-11-11T21:49:46.956Z,88.00
2023-11-11T21:52:50.461Z,88.78
2023-11-11T21:55:53.661Z,89.95
2023-11-11T21:58:56.065Z,91.28
2023-11-11T22:01:59.162Z,92.62
2023-11-11T22:05:01.486Z,94.07
2023-11-11T22:08:04.784Z,94.18
2023-11-11T22:11:11.230Z,91.37
2023-11-11T22:14:13.562Z,89.25
2023-11-11T22:17:16.630Z,89.23
2023-11-11T22:20:19.253Z,87.62
2023-11-11T22:23:21.767Z,89.26
2023-11-11T22:26:24.123Z,89.13
2023-11-11T22:29:26.553Z,88.73
2023-11-11T22:32:28.911Z,89.20
2023-11-11T22:35:31.115Z,89.88
2023-11-11T22:38:33.996Z,90.27
2023-11-11T22:41:36.914Z,89.81
2023-11-11T22:44:39.179Z,87.97
2023-11-11T22:47:47.413Z,86.72
2023-11-11T22:50:49.784Z,87.79
2023-11-11T22:53:52.149Z,86.35
2023-11-11T22:56:54.939Z,86.89
2023-11-11T22:59:59.807Z,87.03
2023-11-11T23:03:08.235Z,88.85
2023-11-11T23:06:11.869Z,89.99
2023-11-11T23:09:14.560Z,90.90
2023-11-11T23:12:18.842Z,93.40
2023-11-11T23:15:24.427Z,90.42
2023-11-11T23:18:26.748Z,91.22
2023-11-11T23:21:30.819Z,91.31
2023-11-11T23:24:35.594Z,93.15
2023-11-11T23:27:41.650Z,91.40
2023-11-11T23:30:44.238Z,86.41
2023-11-11T23:33:46.520Z,87.26
2023-11-11T23:36:48.724Z,84.71
2023-11-11T23:39:51.541Z,85.84
2023-11-11T23:42:54.371Z,88.56
2023-11-11T23:45:57.215Z,89.00
2023-11-11T23:48:59.344Z,89.04
2023-11-11T23:52:01.505Z,90.18
2023-11-11T23:55:06.395Z,91.87
2023-11-11T23:58:09.278Z,93.89
